sensor_id;sensor_type;location;lat;lon;timestamp;P1;durP1;ratioP1;P2;durP2;ratioP2
18820;SDS011;9539;59.332;18.034;2024-02-21T00:02:14;7.05;;;5.13;;
18820;SDS011;9539;59.332;18.034;2024-02-21T00:04:36;8.20;;;5.40;;
18820;SDS011;9539;59.332;18.034;2024-02-21T00:06:58;7.63;;;5.70;;
18820;SDS011;9539;59.332;18.034;2024-02-21T00:09:20;8.93;;;6.15;;
18820;SDS011;9539;59.332;18.034;2024-02-21T00:11:42;9.60;;;6.82;;
18820;SDS011;9539;59.332;18.034;2024-02-21T00:14:03;8.90;;;6.22;;
18820;SDS011;9539;59.332;18.034;2024-02-21T00:16:25;7.93;;;5.70;;
18820;SDS011;9539;59.332;18.034;2024-02-21T00:18:48;8.77;;;5.68;;
18820;SDS011;9539;59.332;18.034;2024-02-21T00:21:10;8.48;;;6.30;;
18820;SDS011;9539;59.332;18.034;2024-02-21T00:23:37;9.27;;;6.35;;
18820;SDS011;9539;59.332;18.034;2024-02-21T00:25:59;8.65;;;6.22;;
18820;SDS011;9539;59.332;18.034;2024-02-21T00:28:21;9.50;;;6.60;;
18820;SDS011;9539;59.332;18.034;2024-02-21T00:30:42;9.57;;;6.32;;
18820;SDS011;9539;59.332;18.034;2024-02-21T00:33:04;8.18;;;5.95;;
18820;SDS011;9539;59.332;18.034;2024-02-21T00:35:26;9.63;;;5.65;;
18820;SDS011;9539;59.332;18.034;2024-02-21T00:37:48;7.13;;;5.35;;
18820;SDS011;9539;59.332;18.034;2024-02-21T00:40:10;7.88;;;5.72;;
18820;SDS011;9539;59.332;18.034;2024-02-21T00:42:31;8.35;;;5.40;;
18820;SDS011;9539;59.332;18.034;2024-02-21T00:44:53;7.90;;;5.82;;
18820;SDS011;9539;59.332;18.034;2024-02-21T00:47:15;9.07;;;5.85;;
18820;SDS011;9539;59.332;18.034;2024-02-21T00:49:37;8.25;;;5.75;;
18820;SDS011;9539;59.332;18.034;2024-02-21T00:52:00;6.90;;;5.28;;
18820;SDS011;9539;59.332;18.034;2024-02-21T00:54:21;8.45;;;5.22;;
18820;SDS011;9539;59.332;18.034;2024-02-21T00:56:44;7.25;;;5.50;;
18820;SDS011;9539;59.332;18.034;2024-02-21T00:59:05;9.10;;;6.25;;
18820;SDS011;9539;59.332;18.034;2024-02-21T01:01:27;8.38;;;5.78;;
18820;SDS011;9539;59.332;18.034;2024-02-21T01:03:49;8.73;;;5.95;;
18820;SDS011;9539;59.332;18.034;2024-02-21T01:06:11;8.98;;;5.78;;
18820;SDS011;9539;59.332;18.034;2024-02-21T01:08:34;10.38;;;6.20;;
18820;SDS011;9539;59.332;18.034;2024-02-21T01:10:56;11.02;;;6.43;;
18820;SDS011;9539;59.332;18.034;2024-02-21T01:13:18;11.52;;;6.50;;
18820;SDS011;9539;59.332;18.034;2024-02-21T01:15:39;10.73;;;6.32;;
18820;SDS011;9539;59.332;18.034;2024-02-21T01:18:01;13.27;;;6.13;;
18820;SDS011;9539;59.332;18.034;2024-02-21T01:20:22;10.73;;;6.38;;
18820;SDS011;9539;59.332;18.034;2024-02-21T01:22:44;11.35;;;6.00;;
18820;SDS011;9539;59.332;18.034;2024-02-21T01:25:08;12.27;;;7.43;;
18820;SDS011;9539;59.332;18.034;2024-02-21T01:27:30;16.40;;;6.90;;
18820;SDS011;9539;59.332;18.034;2024-02-21T01:29:52;19.48;;;6.22;;
18820;SDS011;9539;59.332;18.034;2024-02-21T01:32:13;20.85;;;8.18;;
18820;SDS011;9539;59.332;18.034;2024-02-21T01:34:35;23.90;;;6.75;;
18820;SDS011;9539;59.332;18.034;2024-02-21T01:36:57;20.00;;;7.35;;
18820;SDS011;9539;59.332;18.034;2024-02-21T01:39:19;23.40;;;7.40;;
18820;SDS011;9539;59.332;18.034;2024-02-21T01:41:43;32.20;;;8.15;;
18820;SDS011;9539;59.332;18.034;2024-02-21T01:44:04;32.17;;;7.80;;
18820;SDS011;9539;59.332;18.034;2024-02-21T01:46:26;40.30;;;9.07;;
18820;SDS011;9539;59.332;18.034;2024-02-21T01:48:50;40.10;;;9.30;;
18820;SDS011;9539;59.332;18.034;2024-02-21T01:51:11;60.65;;;9.25;;
18820;SDS011;9539;59.332;18.034;2024-02-21T01:53:34;41.70;;;9.75;;
18820;SDS011;9539;59.332;18.034;2024-02-21T01:55:57;35.92;;;8.98;;
18820;SDS011;9539;59.332;18.034;2024-02-21T01:58:20;38.90;;;9.45;;
18820;SDS011;9539;59.332;18.034;2024-02-21T02:03:13;79.63;;;9.95;;
18820;SDS011;9539;59.332;18.034;2024-02-21T02:05:37;52.70;;;8.70;;
18820;SDS011;9539;59.332;18.034;2024-02-21T02:07:58;48.25;;;10.10;;
18820;SDS011;9539;59.332;18.034;2024-02-21T02:10:20;36.28;;;9.70;;
18820;SDS011;9539;59.332;18.034;2024-02-21T02:12:41;42.35;;;10.25;;
18820;SDS011;9539;59.332;18.034;2024-02-21T02:15:05;50.47;;;10.52;;
18820;SDS011;9539;59.332;18.034;2024-02-21T02:17:27;55.80;;;10.00;;
18820;SDS011;9539;59.332;18.034;2024-02-21T02:19:48;50.67;;;11.00;;
18820;SDS011;9539;59.332;18.034;2024-02-21T02:22:13;81.22;;;11.13;;
18820;SDS011;9539;59.332;18.034;2024-02-21T02:24:37;46.35;;;11.52;;
18820;SDS011;9539;59.332;18.034;2024-02-21T02:26:59;36.28;;;8.82;;
18820;SDS011;9539;59.332;18.034;2024-02-21T02:29:20;45.30;;;12.23;;
18820;SDS011;9539;59.332;18.034;2024-02-21T02:31:42;34.72;;;9.98;;
18820;SDS011;9539;59.332;18.034;2024-02-21T02:34:04;46.50;;;10.85;;
18820;SDS011;9539;59.332;18.034;2024-02-21T02:36:25;47.42;;;11.95;;
18820;SDS011;9539;59.332;18.034;2024-02-21T02:38:47;41.50;;;12.02;;
18820;SDS011;9539;59.332;18.034;2024-02-21T02:41:10;41.65;;;12.88;;
18820;SDS011;9539;59.332;18.034;2024-02-21T02:43:32;49.67;;;12.48;;
18820;SDS011;9539;59.332;18.034;2024-02-21T02:45:53;36.97;;;11.57;;
18820;SDS011;9539;59.332;18.034;2024-02-21T02:48:15;46.22;;;12.60;;
18820;SDS011;9539;59.332;18.034;2024-02-21T02:50:37;43.60;;;13.13;;
18820;SDS011;9539;59.332;18.034;2024-02-21T02:52:59;47.72;;;12.07;;
18820;SDS011;9539;59.332;18.034;2024-02-21T02:55:20;41.40;;;12.00;;
18820;SDS011;9539;59.332;18.034;2024-02-21T02:57:44;38.50;;;13.05;;
18820;SDS011;9539;59.332;18.034;2024-02-21T03:00:06;33.55;;;12.30;;
18820;SDS011;9539;59.332;18.034;2024-02-21T03:02:28;39.60;;;12.75;;
18820;SDS011;9539;59.332;18.034;2024-02-21T03:04:50;33.38;;;11.48;;
18820;SDS011;9539;59.332;18.034;2024-02-21T03:07:11;35.55;;;11.63;;
18820;SDS011;9539;59.332;18.034;2024-02-21T03:09:34;36.20;;;11.93;;
18820;SDS011;9539;59.332;18.034;2024-02-21T03:11:55;29.02;;;10.27;;
18820;SDS011;9539;59.332;18.034;2024-02-21T03:14:24;29.27;;;11.23;;
18820;SDS011;9539;59.332;18.034;2024-02-21T03:16:45;27.00;;;9.27;;
18820;SDS011;9539;59.332;18.034;2024-02-21T03:19:07;22.20;;;9.23;;
18820;SDS011;9539;59.332;18.034;2024-02-21T03:21:28;18.08;;;8.00;;
18820;SDS011;9539;59.332;18.034;2024-02-21T03:23:50;19.52;;;8.07;;
18820;SDS011;9539;59.332;18.034;2024-02-21T03:26:12;17.80;;;7.82;;
18820;SDS011;9539;59.332;18.034;2024-02-21T03:28:37;17.42;;;7.32;;
18820;SDS011;9539;59.332;18.034;2024-02-21T03:31:01;19.05;;;7.70;;
18820;SDS011;9539;59.332;18.034;2024-02-21T03:33:22;14.20;;;6.93;;
18820;SDS011;9539;59.332;18.034;2024-02-21T03:35:44;15.23;;;7.85;;
18820;SDS011;9539;59.332;18.034;2024-02-21T03:38:06;15.90;;;7.15;;
18820;SDS011;9539;59.332;18.034;2024-02-21T03:40:27;13.30;;;5.93;;
18820;SDS011;9539;59.332;18.034;2024-02-21T03:42:49;12.45;;;6.00;;
18820;SDS011;9539;59.332;18.034;2024-02-21T03:45:10;11.80;;;5.88;;
18820;SDS011;9539;59.332;18.034;2024-02-21T03:47:33;10.90;;;5.65;;
18820;SDS011;9539;59.332;18.034;2024-02-21T03:49:55;8.68;;;5.43;;
18820;SDS011;9539;59.332;18.034;2024-02-21T03:52:17;10.52;;;5.55;;
18820;SDS011;9539;59.332;18.034;2024-02-21T03:54:38;7.75;;;4.88;;
18820;SDS011;9539;59.332;18.034;2024-02-21T03:57:00;8.35;;;5.47;;
18820;SDS011;9539;59.332;18.034;2024-02-21T03:59:22;7.43;;;4.50;;
18820;SDS011;9539;59.332;18.034;2024-02-21T04:01:44;7.70;;;4.80;;
18820;SDS011;9539;59.332;18.034;2024-02-21T04:04:07;11.15;;;4.80;;
18820;SDS011;9539;59.332;18.034;2024-02-21T04:06:28;7.68;;;4.47;;
18820;SDS011;9539;59.332;18.034;2024-02-21T04:08:50;7.22;;;4.40;;
18820;SDS011;9539;59.332;18.034;2024-02-21T04:11:12;10.48;;;4.90;;
18820;SDS011;9539;59.332;18.034;2024-02-21T04:13:33;7.18;;;4.40;;
18820;SDS011;9539;59.332;18.034;2024-02-21T04:15:55;7.15;;;3.95;;
18820;SDS011;9539;59.332;18.034;2024-02-21T04:18:17;7.57;;;4.25;;
18820;SDS011;9539;59.332;18.034;2024-02-21T04:20:40;9.15;;;4.13;;
18820;SDS011;9539;59.332;18.034;2024-02-21T04:23:01;16.08;;;4.47;;
18820;SDS011;9539;59.332;18.034;2024-02-21T04:25:23;8.15;;;4.45;;
18820;SDS011;9539;59.332;18.034;2024-02-21T04:27:45;8.88;;;3.85;;
18820;SDS011;9539;59.332;18.034;2024-02-21T04:30:07;9.98;;;4.35;;
18820;SDS011;9539;59.332;18.034;2024-02-21T04:32:29;7.63;;;3.83;;
18820;SDS011;9539;59.332;18.034;2024-02-21T04:34:51;8.93;;;3.90;;
18820;SDS011;9539;59.332;18.034;2024-02-21T04:37:14;7.50;;;3.97;;
18820;SDS011;9539;59.332;18.034;2024-02-21T04:39:35;8.70;;;4.18;;
18820;SDS011;9539;59.332;18.034;2024-02-21T04:41:57;6.13;;;4.07;;
18820;SDS011;9539;59.332;18.034;2024-02-21T04:44:18;9.73;;;4.35;;
18820;SDS011;9539;59.332;18.034;2024-02-21T04:46:41;9.80;;;3.67;;
18820;SDS011;9539;59.332;18.034;2024-02-21T04:49:03;10.38;;;3.58;;
18820;SDS011;9539;59.332;18.034;2024-02-21T04:51:25;7.60;;;3.83;;
18820;SDS011;9539;59.332;18.034;2024-02-21T04:53:48;9.18;;;4.07;;
18820;SDS011;9539;59.332;18.034;2024-02-21T04:56:09;6.10;;;3.85;;
18820;SDS011;9539;59.332;18.034;2024-02-21T04:58:31;7.93;;;3.78;;
18820;SDS011;9539;59.332;18.034;2024-02-21T05:00:53;7.03;;;3.38;;
18820;SDS011;9539;59.332;18.034;2024-02-21T05:03:15;7.88;;;3.70;;
18820;SDS011;9539;59.332;18.034;2024-02-21T05:05:36;11.95;;;4.03;;
18820;SDS011;9539;59.332;18.034;2024-02-21T05:07:58;6.80;;;4.15;;
18820;SDS011;9539;59.332;18.034;2024-02-21T05:10:21;8.52;;;4.20;;
18820;SDS011;9539;59.332;18.034;2024-02-21T05:12:43;8.85;;;4.10;;
18820;SDS011;9539;59.332;18.034;2024-02-21T05:15:05;8.13;;;4.05;;
18820;SDS011;9539;59.332;18.034;2024-02-21T05:17:27;11.23;;;4.88;;
18820;SDS011;9539;59.332;18.034;2024-02-21T05:19:48;11.65;;;4.75;;
18820;SDS011;9539;59.332;18.034;2024-02-21T05:22:10;10.48;;;4.47;;
18820;SDS011;9539;59.332;18.034;2024-02-21T05:24:32;10.30;;;4.40;;
18820;SDS011;9539;59.332;18.034;2024-02-21T05:26:55;8.07;;;4.32;;
18820;SDS011;9539;59.332;18.034;2024-02-21T05:29:17;14.20;;;4.72;;
18820;SDS011;9539;59.332;18.034;2024-02-21T05:31:57;12.93;;;4.57;;
18820;SDS011;9539;59.332;18.034;2024-02-21T05:34:19;7.80;;;4.80;;
18820;SDS011;9539;59.332;18.034;2024-02-21T05:36:41;11.00;;;5.03;;
18820;SDS011;9539;59.332;18.034;2024-02-21T05:39:03;16.08;;;4.40;;
18820;SDS011;9539;59.332;18.034;2024-02-21T05:41:25;11.05;;;4.47;;
18820;SDS011;9539;59.332;18.034;2024-02-21T05:43:48;8.55;;;4.35;;
18820;SDS011;9539;59.332;18.034;2024-02-21T05:46:09;10.32;;;4.32;;
18820;SDS011;9539;59.332;18.034;2024-02-21T05:48:31;11.57;;;4.43;;
18820;SDS011;9539;59.332;18.034;2024-02-21T05:50:53;9.85;;;4.80;;
18820;SDS011;9539;59.332;18.034;2024-02-21T05:53:14;9.15;;;5.00;;
18820;SDS011;9539;59.332;18.034;2024-02-21T05:55:36;9.68;;;4.82;;
18820;SDS011;9539;59.332;18.034;2024-02-21T05:57:57;11.70;;;5.15;;
18820;SDS011;9539;59.332;18.034;2024-02-21T06:00:21;9.93;;;5.40;;
18820;SDS011;9539;59.332;18.034;2024-02-21T06:02:42;11.43;;;5.22;;
18820;SDS011;9539;59.332;18.034;2024-02-21T06:05:04;13.55;;;5.78;;
18820;SDS011;9539;59.332;18.034;2024-02-21T06:07:27;12.02;;;5.72;;
18820;SDS011;9539;59.332;18.034;2024-02-21T06:09:49;15.38;;;6.18;;
18820;SDS011;9539;59.332;18.034;2024-02-21T06:12:10;19.50;;;6.57;;
18820;SDS011;9539;59.332;18.034;2024-02-21T06:14:32;12.77;;;6.13;;
18820;SDS011;9539;59.332;18.034;2024-02-21T06:16:55;14.82;;;6.65;;
18820;SDS011;9539;59.332;18.034;2024-02-21T06:19:17;17.95;;;7.60;;
18820;SDS011;9539;59.332;18.034;2024-02-21T06:21:38;14.15;;;6.80;;
18820;SDS011;9539;59.332;18.034;2024-02-21T06:24:00;12.70;;;6.63;;
18820;SDS011;9539;59.332;18.034;2024-02-21T06:26:21;15.50;;;7.18;;
18820;SDS011;9539;59.332;18.034;2024-02-21T06:28:43;17.13;;;6.65;;
18820;SDS011;9539;59.332;18.034;2024-02-21T06:31:06;14.63;;;7.20;;
18820;SDS011;9539;59.332;18.034;2024-02-21T06:33:29;16.20;;;7.28;;
18820;SDS011;9539;59.332;18.034;2024-02-21T06:35:51;22.05;;;7.72;;
18820;SDS011;9539;59.332;18.034;2024-02-21T06:38:14;17.90;;;7.90;;
18820;SDS011;9539;59.332;18.034;2024-02-21T06:40:37;19.52;;;7.57;;
18820;SDS011;9539;59.332;18.034;2024-02-21T06:43:00;19.55;;;7.78;;
18820;SDS011;9539;59.332;18.034;2024-02-21T06:45:21;15.95;;;7.75;;
18820;SDS011;9539;59.332;18.034;2024-02-21T06:47:43;20.58;;;8.77;;
18820;SDS011;9539;59.332;18.034;2024-02-21T06:50:07;20.13;;;8.15;;
18820;SDS011;9539;59.332;18.034;2024-02-21T06:52:28;24.75;;;8.38;;
18820;SDS011;9539;59.332;18.034;2024-02-21T06:54:51;17.73;;;7.78;;
18820;SDS011;9539;59.332;18.034;2024-02-21T06:57:12;24.48;;;8.52;;
18820;SDS011;9539;59.332;18.034;2024-02-21T06:59:35;24.75;;;9.20;;
18820;SDS011;9539;59.332;18.034;2024-02-21T07:01:57;24.58;;;8.48;;
18820;SDS011;9539;59.332;18.034;2024-02-21T07:04:18;23.48;;;8.23;;
18820;SDS011;9539;59.332;18.034;2024-02-21T07:06:42;25.33;;;8.10;;
18820;SDS011;9539;59.332;18.034;2024-02-21T07:09:03;23.00;;;7.57;;
18820;SDS011;9539;59.332;18.034;2024-02-21T07:11:25;32.70;;;9.05;;
18820;SDS011;9539;59.332;18.034;2024-02-21T07:13:46;20.65;;;8.40;;
18820;SDS011;9539;59.332;18.034;2024-02-21T07:16:08;24.25;;;8.27;;
18820;SDS011;9539;59.332;18.034;2024-02-21T07:18:30;21.08;;;8.80;;
18820;SDS011;9539;59.332;18.034;2024-02-21T07:20:51;23.92;;;8.52;;
18820;SDS011;9539;59.332;18.034;2024-02-21T07:23:17;27.17;;;8.05;;
18820;SDS011;9539;59.332;18.034;2024-02-21T07:25:39;25.17;;;9.13;;
18820;SDS011;9539;59.332;18.034;2024-02-21T07:28:01;26.17;;;10.05;;
18820;SDS011;9539;59.332;18.034;2024-02-21T07:30:23;30.25;;;10.18;;
18820;SDS011;9539;59.332;18.034;2024-02-21T07:32:44;28.73;;;9.30;;
18820;SDS011;9539;59.332;18.034;2024-02-21T07:35:06;28.25;;;9.88;;
18820;SDS011;9539;59.332;18.034;2024-02-21T07:37:33;23.73;;;9.13;;
18820;SDS011;9539;59.332;18.034;2024-02-21T07:39:56;27.10;;;10.02;;
18820;SDS011;9539;59.332;18.034;2024-02-21T07:42:18;27.73;;;8.02;;
18820;SDS011;9539;59.332;18.034;2024-02-21T07:44:40;37.53;;;10.32;;
18820;SDS011;9539;59.332;18.034;2024-02-21T07:47:01;39.92;;;10.68;;
18820;SDS011;9539;59.332;18.034;2024-02-21T07:49:23;63.22;;;10.52;;
18820;SDS011;9539;59.332;18.034;2024-02-21T07:51:44;43.25;;;9.52;;
18820;SDS011;9539;59.332;18.034;2024-02-21T07:54:06;48.30;;;10.55;;
18820;SDS011;9539;59.332;18.034;2024-02-21T07:56:29;45.78;;;11.23;;
18820;SDS011;9539;59.332;18.034;2024-02-21T07:58:51;40.67;;;9.98;;
18820;SDS011;9539;59.332;18.034;2024-02-21T08:01:17;41.20;;;10.13;;
18820;SDS011;9539;59.332;18.034;2024-02-21T08:03:39;44.88;;;10.82;;
18820;SDS011;9539;59.332;18.034;2024-02-21T08:06:00;42.10;;;10.77;;
18820;SDS011;9539;59.332;18.034;2024-02-21T08:08:22;37.80;;;11.07;;
18820;SDS011;9539;59.332;18.034;2024-02-21T08:10:45;52.97;;;10.73;;
18820;SDS011;9539;59.332;18.034;2024-02-21T08:13:09;34.92;;;9.85;;
18820;SDS011;9539;59.332;18.034;2024-02-21T08:15:31;43.53;;;10.13;;
18820;SDS011;9539;59.332;18.034;2024-02-21T08:17:53;44.42;;;9.80;;
18820;SDS011;9539;59.332;18.034;2024-02-21T08:20:19;35.28;;;10.50;;
18820;SDS011;9539;59.332;18.034;2024-02-21T08:22:41;40.38;;;11.23;;
18820;SDS011;9539;59.332;18.034;2024-02-21T08:25:03;37.22;;;10.27;;
18820;SDS011;9539;59.332;18.034;2024-02-21T08:27:25;47.38;;;10.13;;
18820;SDS011;9539;59.332;18.034;2024-02-21T08:29:48;24.77;;;9.90;;
18820;SDS011;9539;59.332;18.034;2024-02-21T08:32:10;33.55;;;9.55;;
18820;SDS011;9539;59.332;18.034;2024-02-21T08:34:32;28.98;;;8.88;;
18820;SDS011;9539;59.332;18.034;2024-02-21T08:36:54;41.10;;;9.45;;
18820;SDS011;9539;59.332;18.034;2024-02-21T08:39:15;34.20;;;9.75;;
18820;SDS011;9539;59.332;18.034;2024-02-21T08:41:37;30.23;;;9.43;;
18820;SDS011;9539;59.332;18.034;2024-02-21T08:43:59;38.67;;;9.00;;
18820;SDS011;9539;59.332;18.034;2024-02-21T08:46:22;30.63;;;9.85;;
18820;SDS011;9539;59.332;18.034;2024-02-21T08:48:44;35.28;;;9.65;;
18820;SDS011;9539;59.332;18.034;2024-02-21T08:51:07;28.50;;;9.30;;
18820;SDS011;9539;59.332;18.034;2024-02-21T08:53:28;34.05;;;9.48;;
18820;SDS011;9539;59.332;18.034;2024-02-21T08:55:50;34.13;;;11.10;;
18820;SDS011;9539;59.332;18.034;2024-02-21T08:58:12;27.55;;;10.48;;
18820;SDS011;9539;59.332;18.034;2024-02-21T09:00:34;32.65;;;8.40;;
18820;SDS011;9539;59.332;18.034;2024-02-21T09:02:57;30.27;;;9.77;;
18820;SDS011;9539;59.332;18.034;2024-02-21T09:05:19;33.75;;;9.18;;
18820;SDS011;9539;59.332;18.034;2024-02-21T09:07:41;28.88;;;9.77;;
18820;SDS011;9539;59.332;18.034;2024-02-21T09:10:03;35.80;;;9.55;;
18820;SDS011;9539;59.332;18.034;2024-02-21T09:12:24;34.17;;;9.95;;
18820;SDS011;9539;59.332;18.034;2024-02-21T09:14:46;28.75;;;9.32;;
18820;SDS011;9539;59.332;18.034;2024-02-21T09:17:10;29.00;;;9.63;;
18820;SDS011;9539;59.332;18.034;2024-02-21T09:19:34;31.90;;;9.88;;
18820;SDS011;9539;59.332;18.034;2024-02-21T09:21:56;31.58;;;9.77;;
18820;SDS011;9539;59.332;18.034;2024-02-21T09:24:18;25.83;;;9.57;;
18820;SDS011;9539;59.332;18.034;2024-02-21T09:26:39;33.38;;;9.20;;
18820;SDS011;9539;59.332;18.034;2024-02-21T09:29:01;28.60;;;9.00;;
18820;SDS011;9539;59.332;18.034;2024-02-21T09:31:24;30.67;;;9.07;;
18820;SDS011;9539;59.332;18.034;2024-02-21T09:33:45;35.85;;;9.85;;
18820;SDS011;9539;59.332;18.034;2024-02-21T09:36:08;21.98;;;8.40;;
18820;SDS011;9539;59.332;18.034;2024-02-21T09:38:30;27.88;;;8.38;;
18820;SDS011;9539;59.332;18.034;2024-02-21T09:40:53;24.08;;;8.50;;
18820;SDS011;9539;59.332;18.034;2024-02-21T09:43:17;16.67;;;7.70;;
18820;SDS011;9539;59.332;18.034;2024-02-21T09:45:41;23.88;;;7.22;;
18820;SDS011;9539;59.332;18.034;2024-02-21T09:50:44;19.67;;;7.60;;
18820;SDS011;9539;59.332;18.034;2024-02-21T09:53:08;23.30;;;8.02;;
18820;SDS011;9539;59.332;18.034;2024-02-21T09:55:31;22.13;;;7.00;;
18820;SDS011;9539;59.332;18.034;2024-02-21T09:57:55;15.20;;;5.57;;
18820;SDS011;9539;59.332;18.034;2024-02-21T10:00:18;19.38;;;7.82;;
18820;SDS011;9539;59.332;18.034;2024-02-21T10:02:41;17.00;;;6.63;;
18820;SDS011;9539;59.332;18.034;2024-02-21T10:05:05;18.85;;;6.55;;
18820;SDS011;9539;59.332;18.034;2024-02-21T10:07:28;14.60;;;6.10;;
18820;SDS011;9539;59.332;18.034;2024-02-21T10:10:01;13.25;;;6.15;;
18820;SDS011;9539;59.332;18.034;2024-02-21T10:12:23;18.75;;;6.07;;
18820;SDS011;9539;59.332;18.034;2024-02-21T10:14:45;13.50;;;5.90;;
18820;SDS011;9539;59.332;18.034;2024-02-21T10:17:07;14.77;;;5.95;;
18820;SDS011;9539;59.332;18.034;2024-02-21T10:19:29;15.93;;;5.82;;
18820;SDS011;9539;59.332;18.034;2024-02-21T10:22:04;13.55;;;5.90;;
18820;SDS011;9539;59.332;18.034;2024-02-21T10:24:27;16.27;;;5.53;;
18820;SDS011;9539;59.332;18.034;2024-02-21T10:26:58;8.20;;;4.95;;
18820;SDS011;9539;59.332;18.034;2024-02-21T10:29:19;14.70;;;5.15;;
18820;SDS011;9539;59.332;18.034;2024-02-21T10:31:41;12.32;;;6.25;;
18820;SDS011;9539;59.332;18.034;2024-02-21T10:34:03;13.23;;;5.82;;
18820;SDS011;9539;59.332;18.034;2024-02-21T10:36:25;9.68;;;5.50;;
18820;SDS011;9539;59.332;18.034;2024-02-21T10:38:47;9.90;;;5.15;;
18820;SDS011;9539;59.332;18.034;2024-02-21T10:41:09;9.85;;;4.95;;
18820;SDS011;9539;59.332;18.034;2024-02-21T10:43:37;13.80;;;5.28;;
18820;SDS011;9539;59.332;18.034;2024-02-21T10:45:59;11.10;;;4.95;;
18820;SDS011;9539;59.332;18.034;2024-02-21T10:48:22;11.77;;;5.70;;
18820;SDS011;9539;59.332;18.034;2024-02-21T10:50:50;12.45;;;6.10;;
18820;SDS011;9539;59.332;18.034;2024-02-21T10:53:17;10.20;;;5.40;;
18820;SDS011;9539;59.332;18.034;2024-02-21T10:55:53;11.93;;;5.95;;
18820;SDS011;9539;59.332;18.034;2024-02-21T10:58:16;9.13;;;5.10;;
18820;SDS011;9539;59.332;18.034;2024-02-21T11:00:40;10.25;;;4.68;;
18820;SDS011;9539;59.332;18.034;2024-02-21T11:03:03;7.95;;;4.40;;
18820;SDS011;9539;59.332;18.034;2024-02-21T11:05:25;14.27;;;5.22;;
18820;SDS011;9539;59.332;18.034;2024-02-21T11:07:48;7.43;;;4.80;;
18820;SDS011;9539;59.332;18.034;2024-02-21T11:10:20;7.85;;;4.30;;
18820;SDS011;9539;59.332;18.034;2024-02-21T11:12:42;10.23;;;5.25;;
18820;SDS011;9539;59.332;18.034;2024-02-21T11:15:05;9.85;;;4.50;;
18820;SDS011;9539;59.332;18.034;2024-02-21T11:17:28;13.35;;;6.35;;
18820;SDS011;9539;59.332;18.034;2024-02-21T11:19:50;10.38;;;4.85;;
18820;SDS011;9539;59.332;18.034;2024-02-21T11:22:15;9.80;;;5.28;;
18820;SDS011;9539;59.332;18.034;2024-02-21T11:24:37;7.53;;;4.82;;
18820;SDS011;9539;59.332;18.034;2024-02-21T11:27:07;9.23;;;5.70;;
18820;SDS011;9539;59.332;18.034;2024-02-21T11:29:29;10.02;;;5.50;;
18820;SDS011;9539;59.332;18.034;2024-02-21T11:31:51;7.75;;;5.20;;
18820;SDS011;9539;59.332;18.034;2024-02-21T11:34:17;12.30;;;5.63;;
18820;SDS011;9539;59.332;18.034;2024-02-21T11:36:48;9.65;;;4.90;;
18820;SDS011;9539;59.332;18.034;2024-02-21T11:39:10;14.10;;;6.00;;
18820;SDS011;9539;59.332;18.034;2024-02-21T11:41:32;9.15;;;5.30;;
18820;SDS011;9539;59.332;18.034;2024-02-21T11:43:53;10.68;;;5.85;;
18820;SDS011;9539;59.332;18.034;2024-02-21T11:46:15;11.95;;;5.90;;
18820;SDS011;9539;59.332;18.034;2024-02-21T11:48:36;10.43;;;5.80;;
18820;SDS011;9539;59.332;18.034;2024-02-21T11:51:00;12.27;;;6.60;;
18820;SDS011;9539;59.332;18.034;2024-02-21T11:53:24;11.30;;;6.40;;
18820;SDS011;9539;59.332;18.034;2024-02-21T11:55:47;15.57;;;6.47;;
18820;SDS011;9539;59.332;18.034;2024-02-21T11:58:09;9.07;;;5.43;;
18820;SDS011;9539;59.332;18.034;2024-02-21T12:00:30;14.02;;;6.63;;
18820;SDS011;9539;59.332;18.034;2024-02-21T12:02:52;15.52;;;7.13;;
18820;SDS011;9539;59.332;18.034;2024-02-21T12:05:15;11.90;;;6.03;;
18820;SDS011;9539;59.332;18.034;2024-02-21T12:07:38;12.80;;;6.88;;
18820;SDS011;9539;59.332;18.034;2024-02-21T12:10:01;12.05;;;7.15;;
18820;SDS011;9539;59.332;18.034;2024-02-21T12:12:23;11.38;;;6.72;;
18820;SDS011;9539;59.332;18.034;2024-02-21T12:14:44;17.58;;;7.68;;
18820;SDS011;9539;59.332;18.034;2024-02-21T12:17:06;14.75;;;7.38;;
18820;SDS011;9539;59.332;18.034;2024-02-21T12:19:28;14.63;;;7.07;;
18820;SDS011;9539;59.332;18.034;2024-02-21T12:21:50;17.08;;;7.30;;
18820;SDS011;9539;59.332;18.034;2024-02-21T12:24:14;16.77;;;6.80;;
18820;SDS011;9539;59.332;18.034;2024-02-21T12:26:36;14.98;;;7.00;;
18820;SDS011;9539;59.332;18.034;2024-02-21T12:28:57;10.32;;;6.72;;
18820;SDS011;9539;59.332;18.034;2024-02-21T12:31:19;16.58;;;6.72;;
18820;SDS011;9539;59.332;18.034;2024-02-21T12:33:42;15.77;;;8.00;;
18820;SDS011;9539;59.332;18.034;2024-02-21T12:36:04;14.40;;;6.22;;
18820;SDS011;9539;59.332;18.034;2024-02-21T12:38:25;13.27;;;7.07;;
18820;SDS011;9539;59.332;18.034;2024-02-21T12:40:49;13.82;;;7.22;;
18820;SDS011;9539;59.332;18.034;2024-02-21T12:43:11;13.23;;;7.35;;
18820;SDS011;9539;59.332;18.034;2024-02-21T12:45:32;13.18;;;6.70;;
18820;SDS011;9539;59.332;18.034;2024-02-21T12:47:55;15.70;;;6.80;;
18820;SDS011;9539;59.332;18.034;2024-02-21T12:50:16;17.20;;;7.40;;
18820;SDS011;9539;59.332;18.034;2024-02-21T12:52:39;15.27;;;7.50;;
18820;SDS011;9539;59.332;18.034;2024-02-21T12:55:01;15.50;;;7.80;;
18820;SDS011;9539;59.332;18.034;2024-02-21T12:57:25;13.25;;;7.53;;
18820;SDS011;9539;59.332;18.034;2024-02-21T12:59:46;14.88;;;7.60;;
18820;SDS011;9539;59.332;18.034;2024-02-21T13:02:08;14.00;;;7.57;;
18820;SDS011;9539;59.332;18.034;2024-02-21T13:04:30;16.10;;;7.68;;
18820;SDS011;9539;59.332;18.034;2024-02-21T13:06:52;15.55;;;7.88;;
18820;SDS011;9539;59.332;18.034;2024-02-21T13:09:13;17.65;;;8.27;;
18820;SDS011;9539;59.332;18.034;2024-02-21T13:11:35;23.27;;;8.57;;
18820;SDS011;9539;59.332;18.034;2024-02-21T13:13:59;19.17;;;8.73;;
18820;SDS011;9539;59.332;18.034;2024-02-21T13:16:20;18.00;;;9.00;;
18820;SDS011;9539;59.332;18.034;2024-02-21T13:18:42;14.05;;;8.38;;
18820;SDS011;9539;59.332;18.034;2024-02-21T13:21:07;16.98;;;8.70;;
18820;SDS011;9539;59.332;18.034;2024-02-21T13:23:29;21.23;;;9.50;;
18820;SDS011;9539;59.332;18.034;2024-02-21T13:25:50;18.10;;;8.13;;
18820;SDS011;9539;59.332;18.034;2024-02-21T13:28:12;20.50;;;9.10;;
18820;SDS011;9539;59.332;18.034;2024-02-21T13:30:37;24.17;;;10.02;;
18820;SDS011;9539;59.332;18.034;2024-02-21T13:32:59;20.17;;;8.70;;
18820;SDS011;9539;59.332;18.034;2024-02-21T13:35:21;24.75;;;10.07;;
18820;SDS011;9539;59.332;18.034;2024-02-21T13:37:43;17.67;;;9.23;;
18820;SDS011;9539;59.332;18.034;2024-02-21T13:40:05;17.08;;;8.60;;
18820;SDS011;9539;59.332;18.034;2024-02-21T13:42:29;18.17;;;8.70;;
18820;SDS011;9539;59.332;18.034;2024-02-21T13:44:50;18.40;;;8.68;;
18820;SDS011;9539;59.332;18.034;2024-02-21T13:47:14;26.15;;;9.57;;
18820;SDS011;9539;59.332;18.034;2024-02-21T13:49:35;17.42;;;9.50;;
18820;SDS011;9539;59.332;18.034;2024-02-21T13:51:57;17.75;;;9.00;;
18820;SDS011;9539;59.332;18.034;2024-02-21T13:54:20;21.52;;;9.35;;
18820;SDS011;9539;59.332;18.034;2024-02-21T13:56:42;18.15;;;9.57;;
18820;SDS011;9539;59.332;18.034;2024-02-21T13:59:03;21.20;;;10.45;;
18820;SDS011;9539;59.332;18.034;2024-02-21T14:01:25;22.35;;;10.48;;
18820;SDS011;9539;59.332;18.034;2024-02-21T14:03:49;23.33;;;10.27;;
18820;SDS011;9539;59.332;18.034;2024-02-21T14:06:11;22.67;;;11.20;;
18820;SDS011;9539;59.332;18.034;2024-02-21T14:08:32;21.63;;;11.30;;
18820;SDS011;9539;59.332;18.034;2024-02-21T14:10:54;20.98;;;10.63;;
18820;SDS011;9539;59.332;18.034;2024-02-21T14:13:19;25.42;;;11.77;;